Terminal Aerodrome Forecast
Issued by NWS

Home | Current Version | Previous Version | Text Only | Print | Product List | Glossary On
Versions: 1 2 3 4 5 6 7 8 9 10 11 12 13 14 15 16 17 18
877
FTUS46 KSTO 261731
TAFRBL
TAF
KRBL 261731Z 2618/2718 16011KT P6SM -RA FEW006 OVC050
     FM262200 16014G21KT P6SM -SHRA SCT030 OVC050
     FM270200 16008KT P6SM VCSH OVC020
     FM271200 32005KT P6SM BKN250=

USA.gov is the U.S. government's official web portal to all federal, state and local government web resources and services.